sensor_id;sensor_type;location;lat;lon;timestamp;pressure;altitude;pressure_sealevel;temperature;humidity
81913;BME280;71377;50.698;7.164;2024-03-23T00:53:49;50052.44;;;-143.15;76.78
81913;BME280;71377;50.698;7.164;2024-03-23T00:56:15;50058.44;;;-143.15;76.50
81913;BME280;71377;50.698;7.164;2024-03-23T00:58:40;50020.53;;;-143.15;76.72
81913;BME280;71377;50.698;7.164;2024-03-23T01:01:06;50046.47;;;-143.15;76.88
81913;BME280;71377;50.698;7.164;2024-03-23T01:03:31;50040.47;;;-143.15;76.42
81913;BME280;71377;50.698;7.164;2024-03-23T01:06:01;50034.50;;;-143.15;76.28
81913;BME280;71377;50.698;7.164;2024-03-23T01:08:26;50016.56;;;-143.15;76.59
81913;BME280;71377;50.698;7.164;2024-03-23T01:10:59;50038.50;;;-143.15;76.88
81913;BME280;71377;50.698;7.164;2024-03-23T01:13:26;50022.53;;;-143.15;76.99
81913;BME280;71377;50.698;7.164;2024-03-23T01:15:52;50036.50;;;-143.15;76.82
81913;BME280;71377;50.698;7.164;2024-03-23T01:18:18;50044.47;;;-143.15;76.73
81913;BME280;71377;50.698;7.164;2024-03-23T01:20:44;50042.47;;;-143.15;76.58
81913;BME280;71377;50.698;7.164;2024-03-23T01:23:10;50086.34;;;-143.15;76.54
81913;BME280;71377;50.698;7.164;2024-03-23T01:25:36;49998.59;;;-143.15;76.28
81913;BME280;71377;50.698;7.164;2024-03-23T01:28:01;50078.38;;;-143.15;76.01
81913;BME280;71377;50.698;7.164;2024-03-23T01:30:26;50038.50;;;-143.15;75.88
81913;BME280;71377;50.698;7.164;2024-03-23T01:32:52;49996.59;;;-143.15;76.13
81913;BME280;71377;50.698;7.164;2024-03-23T01:35:17;50074.38;;;-143.15;76.41
81913;BME280;71377;50.698;7.164;2024-03-23T01:37:43;50054.44;;;-143.15;75.03
81913;BME280;71377;50.698;7.164;2024-03-23T01:40:09;50038.50;;;-143.15;75.14
81913;BME280;71377;50.698;7.164;2024-03-23T01:42:34;50042.47;;;-143.15;75.07
81913;BME280;71377;50.698;7.164;2024-03-23T01:45:00;50006.59;;;-143.15;74.99
81913;BME280;71377;50.698;7.164;2024-03-23T01:47:25;50022.53;;;-143.15;75.02
81913;BME280;71377;50.698;7.164;2024-03-23T01:49:51;50046.47;;;-143.15;74.84
81913;BME280;71377;50.698;7.164;2024-03-23T01:52:17;50064.41;;;-143.15;74.44
81913;BME280;71377;50.698;7.164;2024-03-23T01:54:43;50010.56;;;-143.15;74.95
81913;BME280;71377;50.698;7.164;2024-03-23T01:57:10;50046.47;;;-143.15;73.98
81913;BME280;71377;50.698;7.164;2024-03-23T01:59:35;50042.47;;;-143.15;74.53
81913;BME280;71377;50.698;7.164;2024-03-23T02:02:01;50042.47;;;-143.15;76.33
81913;BME280;71377;50.698;7.164;2024-03-23T02:04:26;50050.44;;;-143.15;75.57
81913;BME280;71377;50.698;7.164;2024-03-23T02:06:52;50022.53;;;-143.15;76.43
81913;BME280;71377;50.698;7.164;2024-03-23T02:09:18;50038.50;;;-143.15;76.47
81913;BME280;71377;50.698;7.164;2024-03-23T02:11:43;50058.44;;;-143.15;75.54
81913;BME280;71377;50.698;7.164;2024-03-23T02:14:08;50038.50;;;-143.15;73.92
81913;BME280;71377;50.698;7.164;2024-03-23T02:16:34;50070.41;;;-143.15;75.38
81913;BME280;71377;50.698;7.164;2024-03-23T02:18:59;50058.44;;;-143.15;75.59
81913;BME280;71377;50.698;7.164;2024-03-23T02:21:26;50098.31;;;-143.15;75.92
81913;BME280;71377;50.698;7.164;2024-03-23T02:23:53;50062.41;;;-143.15;75.82
81913;BME280;71377;50.698;7.164;2024-03-23T02:26:18;50058.44;;;-143.15;75.90
81913;BME280;71377;50.698;7.164;2024-03-23T02:28:43;50092.34;;;-143.15;74.45
81913;BME280;71377;50.698;7.164;2024-03-23T02:31:09;49994.63;;;-143.15;76.20
81913;BME280;71377;50.698;7.164;2024-03-23T02:33:34;50070.41;;;-143.15;75.65
81913;BME280;71377;50.698;7.164;2024-03-23T02:36:03;50022.53;;;-143.15;75.35
81913;BME280;71377;50.698;7.164;2024-03-23T02:38:29;50048.47;;;-143.15;74.84
81913;BME280;71377;50.698;7.164;2024-03-23T02:40:54;50054.44;;;-143.15;75.65
81913;BME280;71377;50.698;7.164;2024-03-23T02:43:20;50038.50;;;-143.15;75.46
81913;BME280;71377;50.698;7.164;2024-03-23T02:45:45;50052.44;;;-143.15;75.29
81913;BME280;71377;50.698;7.164;2024-03-23T02:48:11;50010.56;;;-143.15;75.62
81913;BME280;71377;50.698;7.164;2024-03-23T02:50:36;50032.50;;;-143.15;75.52
81913;BME280;71377;50.698;7.164;2024-03-23T02:53:02;50012.56;;;-143.15;75.53
81913;BME280;71377;50.698;7.164;2024-03-23T02:55:28;50096.31;;;-143.15;75.68
81913;BME280;71377;50.698;7.164;2024-03-23T02:57:53;50036.50;;;-143.15;75.46
81913;BME280;71377;50.698;7.164;2024-03-23T03:00:19;50064.41;;;-143.15;75.26
81913;BME280;71377;50.698;7.164;2024-03-23T03:02:44;50018.53;;;-143.15;75.62
81913;BME280;71377;50.698;7.164;2024-03-23T03:05:10;50028.53;;;-143.15;76.25
81913;BME280;71377;50.698;7.164;2024-03-23T03:07:36;50026.53;;;-143.15;75.48
81913;BME280;71377;50.698;7.164;2024-03-23T03:10:07;50022.53;;;-143.15;75.27
81913;BME280;71377;50.698;7.164;2024-03-23T03:12:35;50038.50;;;-143.15;75.74
81913;BME280;71377;50.698;7.164;2024-03-23T03:15:01;50042.47;;;-143.15;74.73
81913;BME280;71377;50.698;7.164;2024-03-23T03:17:26;50038.50;;;-143.15;74.81
81913;BME280;71377;50.698;7.164;2024-03-23T03:19:52;50028.53;;;-143.15;75.72
81913;BME280;71377;50.698;7.164;2024-03-23T03:22:21;50050.44;;;-143.15;76.02
81913;BME280;71377;50.698;7.164;2024-03-23T03:24:47;50064.41;;;-143.15;74.08
81913;BME280;71377;50.698;7.164;2024-03-23T03:27:12;50024.53;;;-143.15;73.73
81913;BME280;71377;50.698;7.164;2024-03-23T03:29:38;50044.47;;;-143.15;74.37
81913;BME280;71377;50.698;7.164;2024-03-23T03:32:03;50016.56;;;-143.15;74.53
81913;BME280;71377;50.698;7.164;2024-03-23T03:34:29;49986.63;;;-143.15;72.91
81913;BME280;71377;50.698;7.164;2024-03-23T03:36:56;50024.53;;;-143.15;73.16
81913;BME280;71377;50.698;7.164;2024-03-23T03:39:21;50052.44;;;-143.15;72.26
81913;BME280;71377;50.698;7.164;2024-03-23T03:41:48;50042.47;;;-143.15;72.34
81913;BME280;71377;50.698;7.164;2024-03-23T03:44:14;50034.50;;;-143.15;73.05
81913;BME280;71377;50.698;7.164;2024-03-23T03:46:39;50044.47;;;-143.15;73.10
81913;BME280;71377;50.698;7.164;2024-03-23T03:49:05;50044.47;;;-143.15;73.08
81913;BME280;71377;50.698;7.164;2024-03-23T03:51:30;49988.63;;;-143.15;72.64
81913;BME280;71377;50.698;7.164;2024-03-23T03:53:56;50024.53;;;-143.15;72.69
81913;BME280;71377;50.698;7.164;2024-03-23T03:56:22;50010.56;;;-143.15;73.19
81913;BME280;71377;50.698;7.164;2024-03-23T03:58:48;50030.50;;;-143.15;73.51
81913;BME280;71377;50.698;7.164;2024-03-23T04:01:14;50070.41;;;-143.15;73.16
81913;BME280;71377;50.698;7.164;2024-03-23T04:03:39;50022.53;;;-143.15;73.56
81913;BME280;71377;50.698;7.164;2024-03-23T04:06:09;50012.56;;;-143.15;74.06
81913;BME280;71377;50.698;7.164;2024-03-23T04:08:35;50054.44;;;-143.15;74.47
81913;BME280;71377;50.698;7.164;2024-03-23T04:11:01;50050.44;;;-143.15;74.17
81913;BME280;71377;50.698;7.164;2024-03-23T04:13:26;50034.50;;;-143.15;74.18
81913;BME280;71377;50.698;7.164;2024-03-23T04:15:56;50024.53;;;-143.15;74.89
81913;BME280;71377;50.698;7.164;2024-03-23T04:18:22;49994.63;;;-143.15;75.10
81913;BME280;71377;50.698;7.164;2024-03-23T04:20:51;50058.44;;;-143.15;73.58
81913;BME280;71377;50.698;7.164;2024-03-23T04:23:17;50082.38;;;-143.15;72.02
81913;BME280;71377;50.698;7.164;2024-03-23T04:25:43;50044.47;;;-143.15;71.58
81913;BME280;71377;50.698;7.164;2024-03-23T04:28:08;50034.50;;;-143.15;72.53
81913;BME280;71377;50.698;7.164;2024-03-23T04:30:34;50020.53;;;-143.15;71.96
81913;BME280;71377;50.698;7.164;2024-03-23T04:32:59;50054.44;;;-143.15;72.50
81913;BME280;71377;50.698;7.164;2024-03-23T04:35:26;50040.47;;;-143.15;72.43
81913;BME280;71377;50.698;7.164;2024-03-23T04:37:53;50072.38;;;-143.15;73.00
81913;BME280;71377;50.698;7.164;2024-03-23T04:40:19;50024.53;;;-143.15;72.06
81913;BME280;71377;50.698;7.164;2024-03-23T04:42:44;50030.50;;;-143.15;72.61
81913;BME280;71377;50.698;7.164;2024-03-23T04:45:10;50018.53;;;-143.15;72.58
81913;BME280;71377;50.698;7.164;2024-03-23T04:47:37;50048.47;;;-143.15;72.48
81913;BME280;71377;50.698;7.164;2024-03-23T04:50:04;50034.50;;;-143.15;72.36
81913;BME280;71377;50.698;7.164;2024-03-23T04:52:29;50020.53;;;-143.15;72.70
81913;BME280;71377;50.698;7.164;2024-03-23T04:54:55;50028.53;;;-143.15;71.16
81913;BME280;71377;50.698;7.164;2024-03-23T04:57:20;50046.47;;;-143.15;71.94
81913;BME280;71377;50.698;7.164;2024-03-23T04:59:46;50048.47;;;-143.15;72.81
81913;BME280;71377;50.698;7.164;2024-03-23T05:02:13;50018.53;;;-143.15;72.13
81913;BME280;71377;50.698;7.164;2024-03-23T05:04:38;50030.50;;;-143.15;71.61
81913;BME280;71377;50.698;7.164;2024-03-23T05:07:06;50030.50;;;-143.15;70.76
81913;BME280;71377;50.698;7.164;2024-03-23T05:09:31;50050.44;;;-143.15;70.90
81913;BME280;71377;50.698;7.164;2024-03-23T05:11:59;50052.44;;;-143.15;71.30
81913;BME280;71377;50.698;7.164;2024-03-23T05:14:26;50066.41;;;-143.15;71.26
81913;BME280;71377;50.698;7.164;2024-03-23T05:16:52;50052.44;;;-143.15;71.75
81913;BME280;71377;50.698;7.164;2024-03-23T05:19:17;50042.47;;;-143.15;72.32
81913;BME280;71377;50.698;7.164;2024-03-23T05:21:43;49998.59;;;-143.15;70.72
81913;BME280;71377;50.698;7.164;2024-03-23T05:24:08;50046.47;;;-143.15;71.72
81913;BME280;71377;50.698;7.164;2024-03-23T05:26:34;50048.47;;;-143.15;71.37
81913;BME280;71377;50.698;7.164;2024-03-23T05:29:01;50026.53;;;-143.15;71.18
81913;BME280;71377;50.698;7.164;2024-03-23T05:31:28;50086.34;;;-143.15;69.82
81913;BME280;71377;50.698;7.164;2024-03-23T05:33:54;50080.38;;;-143.15;70.90
81913;BME280;71377;50.698;7.164;2024-03-23T05:36:20;50022.53;;;-143.15;70.79
81913;BME280;71377;50.698;7.164;2024-03-23T05:38:46;50058.44;;;-143.15;71.32
81913;BME280;71377;50.698;7.164;2024-03-23T05:41:12;50046.47;;;-143.15;70.40
81913;BME280;71377;50.698;7.164;2024-03-23T05:43:37;50092.34;;;-143.15;70.60
81913;BME280;71377;50.698;7.164;2024-03-23T05:46:03;50074.38;;;-143.15;70.49
81913;BME280;71377;50.698;7.164;2024-03-23T05:48:30;50062.41;;;-143.15;69.99
81913;BME280;71377;50.698;7.164;2024-03-23T05:50:56;50062.41;;;-143.15;71.48
81913;BME280;71377;50.698;7.164;2024-03-23T05:53:23;50016.56;;;-143.15;71.54
81913;BME280;71377;50.698;7.164;2024-03-23T05:55:49;50026.53;;;-143.15;71.50
81913;BME280;71377;50.698;7.164;2024-03-23T05:58:16;50060.44;;;-143.15;72.08
81913;BME280;71377;50.698;7.164;2024-03-23T06:00:42;50038.50;;;-143.15;69.67
81913;BME280;71377;50.698;7.164;2024-03-23T06:03:10;50026.53;;;-143.15;69.60
81913;BME280;71377;50.698;7.164;2024-03-23T06:05:36;50032.50;;;-143.15;70.54
81913;BME280;71377;50.698;7.164;2024-03-23T06:08:03;50046.47;;;-143.15;70.36
81913;BME280;71377;50.698;7.164;2024-03-23T06:10:28;50026.53;;;-143.15;69.34
81913;BME280;71377;50.698;7.164;2024-03-23T06:12:54;50034.50;;;-143.15;71.06
81913;BME280;71377;50.698;7.164;2024-03-23T06:15:19;50068.41;;;-143.15;69.60
81913;BME280;71377;50.698;7.164;2024-03-23T06:17:45;50048.47;;;-143.15;69.83
81913;BME280;71377;50.698;7.164;2024-03-23T06:20:10;50030.50;;;-143.15;69.31
81913;BME280;71377;50.698;7.164;2024-03-23T06:22:36;50058.44;;;-143.15;69.75
81913;BME280;71377;50.698;7.164;2024-03-23T06:25:02;50070.41;;;-143.15;69.92
81913;BME280;71377;50.698;7.164;2024-03-23T06:27:28;50048.47;;;-143.15;70.43
81913;BME280;71377;50.698;7.164;2024-03-23T06:29:53;50056.44;;;-143.15;69.81
81913;BME280;71377;50.698;7.164;2024-03-23T06:32:18;50058.44;;;-143.15;69.92
81913;BME280;71377;50.698;7.164;2024-03-23T06:34:44;50090.34;;;-143.15;69.67
81913;BME280;71377;50.698;7.164;2024-03-23T06:37:10;50066.41;;;-143.15;69.77
81913;BME280;71377;50.698;7.164;2024-03-23T06:39:37;50028.53;;;-143.15;70.27
81913;BME280;71377;50.698;7.164;2024-03-23T06:42:02;50062.41;;;-143.15;69.72
81913;BME280;71377;50.698;7.164;2024-03-23T06:44:28;50036.50;;;-143.15;70.75
81913;BME280;71377;50.698;7.164;2024-03-23T06:46:54;50054.44;;;-143.15;70.53
81913;BME280;71377;50.698;7.164;2024-03-23T06:49:20;50034.50;;;-143.15;70.57
81913;BME280;71377;50.698;7.164;2024-03-23T06:51:45;50068.41;;;-143.15;71.17
81913;BME280;71377;50.698;7.164;2024-03-23T06:54:13;50040.47;;;-143.15;71.52
81913;BME280;71377;50.698;7.164;2024-03-23T06:56:40;50054.44;;;-143.15;70.07
81913;BME280;71377;50.698;7.164;2024-03-23T06:59:06;50038.50;;;-143.15;70.72
81913;BME280;71377;50.698;7.164;2024-03-23T07:01:32;50034.50;;;-143.15;70.39
81913;BME280;71377;50.698;7.164;2024-03-23T07:03:57;50058.44;;;-143.15;68.98
81913;BME280;71377;50.698;7.164;2024-03-23T07:06:22;50066.41;;;-143.15;67.72
81913;BME280;71377;50.698;7.164;2024-03-23T07:08:48;50038.50;;;-143.15;67.54
81913;BME280;71377;50.698;7.164;2024-03-23T07:11:23;50016.56;;;-143.15;66.90
81913;BME280;71377;50.698;7.164;2024-03-23T07:13:50;50052.44;;;-143.15;67.34
81913;BME280;71377;50.698;7.164;2024-03-23T07:16:16;50048.47;;;-143.15;68.48
81913;BME280;71377;50.698;7.164;2024-03-23T07:18:41;50034.50;;;-143.15;67.37
81913;BME280;71377;50.698;7.164;2024-03-23T07:21:07;50046.47;;;-143.15;67.25
81913;BME280;71377;50.698;7.164;2024-03-23T07:23:33;50060.44;;;-143.15;67.02
81913;BME280;71377;50.698;7.164;2024-03-23T07:26:00;50082.38;;;-143.15;66.71
81913;BME280;71377;50.698;7.164;2024-03-23T07:28:26;50062.41;;;-143.15;65.76
81913;BME280;71377;50.698;7.164;2024-03-23T07:33:28;50074.38;;;-143.15;66.25
81913;BME280;71377;50.698;7.164;2024-03-23T07:35:53;50062.41;;;-143.15;65.96
81913;BME280;71377;50.698;7.164;2024-03-23T07:38:19;50030.50;;;-143.15;65.53
81913;BME280;71377;50.698;7.164;2024-03-23T07:40:44;50062.41;;;-143.15;65.55
81913;BME280;71377;50.698;7.164;2024-03-23T07:43:10;50076.38;;;-143.15;65.47
81913;BME280;71377;50.698;7.164;2024-03-23T07:45:35;50066.41;;;-143.15;65.38
81913;BME280;71377;50.698;7.164;2024-03-23T07:48:03;50066.41;;;-143.15;64.18
81913;BME280;71377;50.698;7.164;2024-03-23T07:50:29;50022.53;;;-143.15;64.34
81913;BME280;71377;50.698;7.164;2024-03-23T07:52:57;50090.34;;;-143.15;64.46
81913;BME280;71377;50.698;7.164;2024-03-23T07:55:22;50060.44;;;-143.15;63.84
81913;BME280;71377;50.698;7.164;2024-03-23T07:57:48;50056.44;;;-143.15;64.40
81913;BME280;71377;50.698;7.164;2024-03-23T08:00:13;50054.44;;;-143.15;62.52
81913;BME280;71377;50.698;7.164;2024-03-23T08:02:39;50058.44;;;-143.15;63.29
81913;BME280;71377;50.698;7.164;2024-03-23T08:05:04;50088.34;;;-143.15;62.53
81913;BME280;71377;50.698;7.164;2024-03-23T08:07:31;50044.47;;;-143.15;62.49
81913;BME280;71377;50.698;7.164;2024-03-23T08:09:56;50030.50;;;-143.15;61.71
81913;BME280;71377;50.698;7.164;2024-03-23T08:12:22;50022.53;;;-143.15;61.08
81913;BME280;71377;50.698;7.164;2024-03-23T08:14:47;50050.44;;;-143.15;59.55
81913;BME280;71377;50.698;7.164;2024-03-23T08:17:13;50068.41;;;-143.15;59.50
81913;BME280;71377;50.698;7.164;2024-03-23T08:19:38;50014.56;;;-143.15;63.42
81913;BME280;71377;50.698;7.164;2024-03-23T08:22:04;50050.44;;;-143.15;67.48
81913;BME280;71377;50.698;7.164;2024-03-23T08:24:29;49998.59;;;-143.15;70.60
81913;BME280;71377;50.698;7.164;2024-03-23T08:26:55;50010.56;;;-143.15;72.09
81913;BME280;71377;50.698;7.164;2024-03-23T08:29:21;50050.44;;;-143.15;72.99
81913;BME280;71377;50.698;7.164;2024-03-23T08:31:46;50040.47;;;-143.15;75.09
81913;BME280;71377;50.698;7.164;2024-03-23T08:34:12;50056.44;;;-143.15;72.88
81913;BME280;71377;50.698;7.164;2024-03-23T08:36:37;49994.63;;;-143.15;73.21
81913;BME280;71377;50.698;7.164;2024-03-23T08:39:03;50020.53;;;-143.15;74.86
81913;BME280;71377;50.698;7.164;2024-03-23T08:41:28;50004.59;;;-143.15;72.09
81913;BME280;71377;50.698;7.164;2024-03-23T08:43:54;50018.53;;;-143.15;72.88
81913;BME280;71377;50.698;7.164;2024-03-23T08:46:19;50034.50;;;-143.15;77.44
81913;BME280;71377;50.698;7.164;2024-03-23T08:48:46;50018.53;;;-143.15;77.45
81913;BME280;71377;50.698;7.164;2024-03-23T08:51:15;50044.47;;;-143.15;77.09
81913;BME280;71377;50.698;7.164;2024-03-23T08:53:41;50020.53;;;-143.15;74.19
81913;BME280;71377;50.698;7.164;2024-03-23T08:56:08;50068.41;;;-143.15;70.75
81913;BME280;71377;50.698;7.164;2024-03-23T08:58:36;50056.44;;;-143.15;71.24
81913;BME280;71377;50.698;7.164;2024-03-23T09:01:12;50036.50;;;-143.15;72.29
81913;BME280;71377;50.698;7.164;2024-03-23T09:03:41;50042.47;;;-143.15;68.47
81913;BME280;71377;50.698;7.164;2024-03-23T09:06:11;50060.44;;;-143.15;68.98
81913;BME280;71377;50.698;7.164;2024-03-23T09:08:37;50056.44;;;-143.15;76.28
81913;BME280;71377;50.698;7.164;2024-03-23T09:11:06;50050.44;;;-143.15;69.45
81913;BME280;71377;50.698;7.164;2024-03-23T09:13:33;49994.63;;;-143.15;66.95
81913;BME280;71377;50.698;7.164;2024-03-23T09:15:59;50036.50;;;-143.15;64.16
81913;BME280;71377;50.698;7.164;2024-03-23T09:18:25;50064.41;;;-143.15;61.61
81913;BME280;71377;50.698;7.164;2024-03-23T09:20:50;50062.41;;;-143.15;61.28
81913;BME280;71377;50.698;7.164;2024-03-23T09:23:16;50042.47;;;-143.15;59.87
81913;BME280;71377;50.698;7.164;2024-03-23T09:25:41;50042.47;;;-143.15;59.47
81913;BME280;71377;50.698;7.164;2024-03-23T09:28:07;50074.38;;;-143.15;59.69
81913;BME280;71377;50.698;7.164;2024-03-23T09:30:36;50064.41;;;-143.15;57.00
81913;BME280;71377;50.698;7.164;2024-03-23T09:33:08;50086.34;;;-143.15;57.51
81913;BME280;71377;50.698;7.164;2024-03-23T09:35:39;50046.47;;;-143.15;57.59
81913;BME280;71377;50.698;7.164;2024-03-23T09:38:06;50034.50;;;-143.15;58.84
81913;BME280;71377;50.698;7.164;2024-03-23T09:40:40;50054.44;;;-143.15;57.21
81913;BME280;71377;50.698;7.164;2024-03-23T09:43:06;50050.44;;;-143.15;57.83
81913;BME280;71377;50.698;7.164;2024-03-23T09:45:35;50094.31;;;-143.15;58.31
81913;BME280;71377;50.698;7.164;2024-03-23T09:48:01;50066.41;;;-143.15;55.58
81913;BME280;71377;50.698;7.164;2024-03-23T09:50:27;50070.41;;;-143.15;55.42
81913;BME280;71377;50.698;7.164;2024-03-23T09:52:53;50084.34;;;-143.15;54.86
81913;BME280;71377;50.698;7.164;2024-03-23T09:55:18;50038.50;;;-143.15;56.30
81913;BME280;71377;50.698;7.164;2024-03-23T09:57:44;50056.44;;;-143.15;51.33
81913;BME280;71377;50.698;7.164;2024-03-23T10:00:10;50062.41;;;-143.15;53.71
81913;BME280;71377;50.698;7.164;2024-03-23T10:02:37;50090.34;;;-143.15;50.49
81913;BME280;71377;50.698;7.164;2024-03-23T10:05:03;50074.38;;;-143.15;50.72
81913;BME280;71377;50.698;7.164;2024-03-23T10:07:29;50058.44;;;-143.15;50.44
81913;BME280;71377;50.698;7.164;2024-03-23T10:09:55;50068.41;;;-143.15;51.23
81913;BME280;71377;50.698;7.164;2024-03-23T10:12:22;50050.44;;;-143.15;50.15
81913;BME280;71377;50.698;7.164;2024-03-23T10:14:49;50038.50;;;-143.15;50.07
81913;BME280;71377;50.698;7.164;2024-03-23T10:17:21;50024.53;;;-143.15;49.75
81913;BME280;71377;50.698;7.164;2024-03-23T10:19:50;50038.50;;;-143.15;49.97
81913;BME280;71377;50.698;7.164;2024-03-23T10:22:21;50050.44;;;-143.15;49.82
81913;BME280;71377;50.698;7.164;2024-03-23T10:24:47;50034.50;;;-143.15;50.17
81913;BME280;71377;50.698;7.164;2024-03-23T10:27:20;50032.50;;;-143.15;49.39
81913;BME280;71377;50.698;7.164;2024-03-23T10:29:46;50046.47;;;-143.15;49.74
81913;BME280;71377;50.698;7.164;2024-03-23T10:32:13;50074.38;;;-143.15;49.58
81913;BME280;71377;50.698;7.164;2024-03-23T10:34:39;50054.44;;;-143.15;49.08
81913;BME280;71377;50.698;7.164;2024-03-23T10:37:06;50050.44;;;-143.15;49.66
81913;BME280;71377;50.698;7.164;2024-03-23T10:39:36;50036.50;;;-143.15;52.50
81913;BME280;71377;50.698;7.164;2024-03-23T10:42:06;50074.38;;;-143.15;56.76
81913;BME280;71377;50.698;7.164;2024-03-23T10:44:36;50020.53;;;-143.15;57.75
81913;BME280;71377;50.698;7.164;2024-03-23T10:47:02;50028.53;;;-143.15;56.92
81913;BME280;71377;50.698;7.164;2024-03-23T10:49:29;50014.56;;;-143.15;59.78
81913;BME280;71377;50.698;7.164;2024-03-23T10:52:03;50018.53;;;-143.15;64.89
81913;BME280;71377;50.698;7.164;2024-03-23T10:54:32;50024.53;;;-143.15;66.12
81913;BME280;71377;50.698;7.164;2024-03-23T10:57:09;50002.59;;;-143.15;65.32
81913;BME280;71377;50.698;7.164;2024-03-23T10:59:39;50004.59;;;-143.15;66.32
81913;BME280;71377;50.698;7.164;2024-03-23T11:02:05;50020.53;;;-143.15;67.30
81913;BME280;71377;50.698;7.164;2024-03-23T11:04:34;49978.66;;;-143.15;65.51
81913;BME280;71377;50.698;7.164;2024-03-23T11:07:01;50004.59;;;-143.15;64.13
81913;BME280;71377;50.698;7.164;2024-03-23T11:09:40;50062.41;;;-143.15;61.99
81913;BME280;71377;50.698;7.164;2024-03-23T11:14:49;49984.66;;;-143.15;60.45
81913;BME280;71377;50.698;7.164;2024-03-23T11:17:19;50026.53;;;-143.15;60.94
81913;BME280;71377;50.698;7.164;2024-03-23T11:19:53;50030.50;;;-143.15;59.53
81913;BME280;71377;50.698;7.164;2024-03-23T11:25:15;50050.44;;;-143.15;56.65
81913;BME280;71377;50.698;7.164;2024-03-23T11:27:42;50036.50;;;-143.15;57.45
81913;BME280;71377;50.698;7.164;2024-03-23T11:32:41;50060.44;;;-143.15;56.00
81913;BME280;71377;50.698;7.164;2024-03-23T11:35:07;50026.53;;;-143.15;53.43
81913;BME280;71377;50.698;7.164;2024-03-23T11:37:36;50046.47;;;-143.15;51.53
81913;BME280;71377;50.698;7.164;2024-03-23T11:40:19;50050.44;;;-143.15;51.81
81913;BME280;71377;50.698;7.164;2024-03-23T11:42:45;50044.47;;;-143.15;48.76
81913;BME280;71377;50.698;7.164;2024-03-23T11:45:11;50046.47;;;-143.15;50.23
81913;BME280;71377;50.698;7.164;2024-03-23T11:47:36;50040.47;;;-143.15;48.11
81913;BME280;71377;50.698;7.164;2024-03-23T11:50:02;50006.59;;;-143.15;46.32
81913;BME280;71377;50.698;7.164;2024-03-23T11:52:28;50030.50;;;-143.15;45.17
81913;BME280;71377;50.698;7.164;2024-03-23T11:55:03;50058.44;;;-143.15;44.75
81913;BME280;71377;50.698;7.164;2024-03-23T11:57:29;50068.41;;;-143.15;44.58
81913;BME280;71377;50.698;7.164;2024-03-23T11:59:55;50042.47;;;-143.15;44.22
81913;BME280;71377;50.698;7.164;2024-03-23T12:02:20;50014.56;;;-143.15;46.44
81913;BME280;71377;50.698;7.164;2024-03-23T12:04:46;50018.53;;;-143.15;47.68
81913;BME280;71377;50.698;7.164;2024-03-23T12:07:19;50030.50;;;-143.15;48.18
81913;BME280;71377;50.698;7.164;2024-03-23T12:09:46;50026.53;;;-143.15;49.59
81913;BME280;71377;50.698;7.164;2024-03-23T12:12:16;50030.50;;;-143.15;50.87
81913;BME280;71377;50.698;7.164;2024-03-23T12:15:01;50004.59;;;-143.15;49.51
81913;BME280;71377;50.698;7.164;2024-03-23T12:17:27;50046.47;;;-143.15;47.73
81913;BME280;71377;50.698;7.164;2024-03-23T12:19:52;50020.53;;;-143.15;46.89
81913;BME280;71377;50.698;7.164;2024-03-23T12:22:22;50052.44;;;-143.15;46.15
81913;BME280;71377;50.698;7.164;2024-03-23T12:24:48;50050.44;;;-143.15;44.78
81913;BME280;71377;50.698;7.164;2024-03-23T12:27:14;50002.59;;;-143.15;45.26
81913;BME280;71377;50.698;7.164;2024-03-23T12:29:40;50022.53;;;-143.15;45.76
81913;BME280;71377;50.698;7.164;2024-03-23T12:32:07;50042.47;;;-143.15;46.11
81913;BME280;71377;50.698;7.164;2024-03-23T12:34:33;50036.50;;;-143.15;46.02
81913;BME280;71377;50.698;7.164;2024-03-23T12:36:58;50068.41;;;-143.15;45.10
81913;BME280;71377;50.698;7.164;2024-03-23T12:39:24;49994.63;;;-143.15;44.77
81913;BME280;71377;50.698;7.164;2024-03-23T12:41:50;50032.50;;;-143.15;41.92
81913;BME280;71377;50.698;7.164;2024-03-23T12:44:15;50034.50;;;-143.15;41.66
81913;BME280;71377;50.698;7.164;2024-03-23T12:46:41;50052.44;;;-143.15;40.42
81913;BME280;71377;50.698;7.164;2024-03-23T12:49:07;50024.53;;;-143.15;39.99
81913;BME280;71377;50.698;7.164;2024-03-23T12:51:33;50024.53;;;-143.15;38.84
81913;BME280;71377;50.698;7.164;2024-03-23T12:53:58;50030.50;;;-143.15;38.53
81913;BME280;71377;50.698;7.164;2024-03-23T12:56:24;50014.56;;;-143.15;37.40
81913;BME280;71377;50.698;7.164;2024-03-23T12:58:49;50022.53;;;-143.15;37.76
81913;BME280;71377;50.698;7.164;2024-03-23T13:01:17;50026.53;;;-143.15;41.03
81913;BME280;71377;50.698;7.164;2024-03-23T13:03:43;50026.53;;;-143.15;44.30
81913;BME280;71377;50.698;7.164;2024-03-23T13:06:10;50002.59;;;-143.15;45.65
81913;BME280;71377;50.698;7.164;2024-03-23T13:08:36;50018.53;;;-143.15;47.24
81913;BME280;71377;50.698;7.164;2024-03-23T13:11:01;50016.56;;;-143.15;47.78
81913;BME280;71377;50.698;7.164;2024-03-23T13:13:29;50014.56;;;-143.15;48.92
81913;BME280;71377;50.698;7.164;2024-03-23T13:15:56;50020.53;;;-143.15;48.93
81913;BME280;71377;50.698;7.164;2024-03-23T13:18:21;49990.63;;;-143.15;49.05
81913;BME280;71377;50.698;7.164;2024-03-23T13:20:47;49988.63;;;-143.15;47.86
81913;BME280;71377;50.698;7.164;2024-03-23T13:23:12;50022.53;;;-143.15;47.10
81913;BME280;71377;50.698;7.164;2024-03-23T13:25:38;49990.63;;;-143.15;44.63
81913;BME280;71377;50.698;7.164;2024-03-23T13:28:04;50024.53;;;-143.15;42.54
81913;BME280;71377;50.698;7.164;2024-03-23T13:30:29;50022.53;;;-143.15;42.63
81913;BME280;71377;50.698;7.164;2024-03-23T13:32:55;50002.59;;;-143.15;42.51
81913;BME280;71377;50.698;7.164;2024-03-23T13:35:21;50036.50;;;-143.15;41.59
81913;BME280;71377;50.698;7.164;2024-03-23T13:37:46;50014.56;;;-143.15;42.54
81913;BME280;71377;50.698;7.164;2024-03-23T13:40:12;50046.47;;;-143.15;40.80